Burnage, United Kingdom
Current Conditions -  °F | °C
As of 11:50 PM on Sunday 23 Nov 2014 (Local Time) from EGCC Reporting Station
Broken Clouds Broken Clouds  
Wind Chill: 37°   Ceiling: 3200
Heat Index: 37°   Visibility: 6mi
Dew Point: 37°   Wind: 2mph
Humidity: 100%   Direction: NA
Pressure: 30.18"   Gusts: NA
Location:  53.43°N, 2.2°W
Report Text: EGCC 232350Z VRB02KT 9999 SCT026 BKN032 03/03 Q1022 NOSIG
Loading
Personal Weather Stations






























Interactive Weather Map New forecast layout! Learn more

10-Day Weather Forecast

Advertisements
Track Severe Weather on mobile